Time;durP1;ratioP1;P1;durP2;ratioP2;P2;SDS_P1;SDS_P2;PMS_P1;PMS_P2;Temp;Humidity;BMP_temperature;BMP_pressure;BME280_temperature;BME280_humidity;BME280_pressure;Samples;Min_cycle;Max_cycle;Signal;HPM_P1;HPM_P2
2021/12/07 00:02:01;;;;;;;4.57;3.90;;;3.30;99.90;;;;;;5010540;28;20225;-76
2021/12/07 00:04:30;;;;;;;4.30;3.87;;;3.30;99.90;;;;;;5009816;28;20225;-76
2021/12/07 00:06:58;;;;;;;4.60;3.97;;;3.30;99.90;;;;;;5011042;28;20195;-76
2021/12/07 00:09:25;;;;;;;4.53;3.60;;;3.30;99.90;;;;;;5012338;28;20209;-76
2021/12/07 00:11:54;;;;;;;4.47;4.07;;;3.40;99.90;;;;;;5010236;28;20230;-76
2021/12/07 00:14:24;;;;;;;3.97;3.57;;;3.50;99.90;;;;;;5012526;28;20584;-76
2021/12/07 00:16:54;;;;;;;5.67;3.40;;;3.50;99.90;;;;;;5043881;23;20231;-77
2021/12/07 00:19:22;;;;;;;2.97;2.67;;;3.50;99.90;;;;;;5009197;28;20212;-77
2021/12/07 00:21:52;;;;;;;3.00;2.70;;;3.50;99.90;;;;;;5024120;28;20205;-77
2021/12/07 00:24:19;;;;;;;3.27;2.40;;;3.50;99.90;;;;;;5006076;28;20187;-77
2021/12/07 00:26:47;;;;;;;2.40;2.10;;;3.50;99.90;;;;;;5024752;28;20248;-76
2021/12/07 00:29:15;;;;;;;3.10;2.60;;;3.50;99.90;;;;;;5012849;28;20698;-77
2021/12/07 00:31:52;;;;;;;2.20;2.00;;;3.50;99.90;;;;;;5011872;28;20206;-77
2021/12/07 00:34:37;;;;;;;2.47;2.27;;;3.50;99.90;;;;;;5018391;28;20203;-77
2021/12/07 00:37:07;;;;;;;2.33;2.13;;;3.50;99.90;;;;;;5009038;28;20574;-77
2021/12/07 00:39:34;;;;;;;2.17;1.97;;;3.50;99.90;;;;;;5008564;28;20561;-77
2021/12/07 00:42:02;;;;;;;2.33;2.13;;;3.40;99.90;;;;;;5012558;28;20203;-77
2021/12/07 00:44:30;;;;;;;2.30;2.10;;;3.50;99.90;;;;;;5028056;28;20219;-77
2021/12/07 00:46:57;;;;;;;2.80;2.50;;;3.50;99.90;;;;;;5009105;28;20219;-77
2021/12/07 00:49:25;;;;;;;2.40;2.20;;;3.60;99.90;;;;;;5011765;28;20219;-77
2021/12/07 00:51:52;;;;;;;2.50;2.30;;;3.50;99.90;;;;;;5016676;28;20201;-77
2021/12/07 00:54:21;;;;;;;2.77;2.30;;;3.50;99.90;;;;;;5025461;28;20204;-76
2021/12/07 00:56:50;;;;;;;2.40;2.20;;;3.50;99.90;;;;;;5026154;28;20228;-77
2021/12/07 00:59:19;;;;;;;3.07;2.07;;;3.40;99.90;;;;;;5021892;28;20192;-77
2021/12/07 01:01:46;;;;;;;2.53;2.17;;;3.50;99.90;;;;;;4999892;28;20200;-75
2021/12/07 01:04:14;;;;;;;2.20;2.00;;;3.60;99.90;;;;;;5012528;28;20210;-77
2021/12/07 01:06:49;;;;;;;2.23;2.03;;;3.50;99.90;;;;;;5010376;28;20230;-78
2021/12/07 01:09:24;;;;;;;2.57;2.33;;;3.50;99.90;;;;;;5029942;28;20209;-77
2021/12/07 01:25:44;;;;;;;4.23;3.43;;;3.40;99.90;;;;;;5015498;28;20236;-77
2021/12/07 01:28:21;;;;;;;4.17;3.57;;;3.30;99.90;;;;;;5013619;28;20209;-77
2021/12/07 01:30:54;;;;;;;4.47;4.07;;;3.20;99.90;;;;;;5030941;28;20227;-77
2021/12/07 01:33:46;;;;;;;4.63;4.20;;;3.20;99.90;;;;;;5028763;28;20195;-77
2021/12/07 01:36:42;;;;;;;4.60;4.10;;;3.20;99.90;;;;;;5027255;28;20582;-78
2021/12/07 01:45:03;;;;;;;7.33;6.27;;;3.20;99.90;;;;;;5004371;28;20650;-77
2021/12/07 01:47:45;;;;;;;7.03;6.17;;;3.10;99.90;;;;;;5027294;28;20200;-78
2021/12/07 01:50:36;;;;;;;6.47;5.77;;;3.10;99.90;;;;;;5022233;28;20216;-77
2021/12/07 01:57:45;;;;;;;9.57;6.67;;;3.20;99.90;;;;;;5007821;28;20196;-77
2021/12/07 02:01:33;;;;;;;8.70;7.50;;;2.90;99.90;;;;;;5024029;28;20191;-78
2021/12/07 02:04:00;;;;;;;9.13;7.50;;;2.90;99.90;;;;;;5008644;28;20676;-77
2021/12/07 02:06:28;;;;;;;9.93;6.73;;;2.90;99.90;;;;;;5015192;28;20216;-77
2021/12/07 02:08:55;;;;;;;8.73;6.90;;;2.80;99.90;;;;;;5026986;28;20201;-78
2021/12/07 02:11:23;;;;;;;7.67;6.50;;;2.80;99.90;;;;;;5009555;28;20219;-77
2021/12/07 02:16:38;;;;;;;7.70;6.70;;;2.70;99.90;;;;;;5012773;28;20223;-78
2021/12/07 02:19:06;;;;;;;8.33;7.17;;;2.70;99.90;;;;;;5009120;28;20207;-78
2021/12/07 02:21:34;;;;;;;7.77;6.97;;;2.70;99.90;;;;;;5032635;28;20207;-78
2021/12/07 02:24:10;;;;;;;7.57;6.07;;;2.70;99.90;;;;;;5012668;28;20215;-77
2021/12/07 02:26:38;;;;;;;9.37;7.10;;;2.60;99.90;;;;;;5009158;28;20235;-78
2021/12/07 02:29:06;;;;;;;8.73;7.57;;;2.40;99.90;;;;;;5028175;28;20203;-78
2021/12/07 02:31:34;;;;;;;8.03;6.37;;;2.40;99.90;;;;;;5034023;28;20227;-78
2021/12/07 02:34:02;;;;;;;10.23;7.93;;;2.40;99.90;;;;;;5030468;28;20203;-78
2021/12/07 02:36:29;;;;;;;8.97;7.80;;;2.60;99.90;;;;;;5033034;28;20245;-78
2021/12/07 02:38:59;;;;;;;8.83;7.93;;;2.70;99.90;;;;;;5015048;28;20202;-78
2021/12/07 02:41:26;;;;;;;10.13;7.97;;;2.60;99.90;;;;;;5029729;28;20649;-78
2021/12/07 02:43:54;;;;;;;10.13;7.97;;;2.70;99.90;;;;;;5020198;28;20206;-78
2021/12/07 02:46:21;;;;;;;10.90;9.13;;;2.60;99.90;;;;;;5030536;28;20236;-78
2021/12/07 02:48:52;;;;;;;11.37;9.17;;;2.70;99.90;;;;;;5027663;28;20203;-78
2021/12/07 02:51:20;;;;;;;10.87;9.13;;;2.60;99.90;;;;;;5031715;28;20223;-78
2021/12/07 02:53:48;;;;;;;12.50;10.30;;;2.60;99.90;;;;;;5026090;28;20212;-78
2021/12/07 02:56:17;;;;;;;13.53;10.00;;;2.60;99.90;;;;;;5008941;28;20224;-78
2021/12/07 02:58:45;;;;;;;12.20;9.60;;;2.60;99.90;;;;;;5008751;28;20552;-78
2021/12/07 03:01:21;;;;;;;14.00;10.27;;;2.60;99.90;;;;;;5015074;28;20201;-78
2021/12/07 03:03:59;;;;;;;16.50;11.00;;;2.60;99.90;;;;;;5013202;28;20204;-78
2021/12/07 03:06:37;;;;;;;14.33;10.67;;;2.70;99.90;;;;;;5014819;28;20226;-78
2021/12/07 03:09:40;;;;;;;15.93;11.70;;;2.80;99.90;;;;;;5009734;28;20195;-78
2021/12/07 03:26:05;;;;;;;17.53;14.07;;;3.40;99.90;;;;;;5027484;28;20226;-78
2021/12/07 03:28:39;;;;;;;20.83;15.10;;;3.50;99.90;;;;;;5023272;28;20199;-79
2021/12/07 03:31:18;;;;;;;20.20;14.60;;;3.60;99.90;;;;;;5011522;28;20227;-78
2021/12/07 03:33:49;;;;;;;22.73;16.47;;;3.70;99.90;;;;;;5004584;28;20193;-78
2021/12/07 03:36:17;;;;;;;23.33;16.00;;;3.60;99.90;;;;;;5021919;28;20220;-78
2021/12/07 03:38:46;;;;;;;24.07;16.93;;;3.70;99.90;;;;;;5024003;28;20208;-78
2021/12/07 03:41:15;;;;;;;21.37;15.43;;;3.70;99.90;;;;;;5006660;28;20196;-78
2021/12/07 03:43:43;;;;;;;22.67;16.53;;;3.70;99.90;;;;;;4999218;28;20276;-79
2021/12/07 03:46:13;;;;;;;24.03;17.10;;;3.70;99.90;;;;;;5027432;28;20222;-78
2021/12/07 03:48:42;;;;;;;22.37;16.50;;;3.70;99.90;;;;;;5003632;28;20207;-78
2021/12/07 03:51:10;;;;;;;26.77;18.63;;;3.60;99.90;;;;;;5006275;28;20210;-78
2021/12/07 03:53:38;;;;;;;24.17;16.67;;;3.50;99.90;;;;;;5009135;28;20200;-77
2021/12/07 03:56:08;;;;;;;25.30;17.57;;;3.60;99.90;;;;;;5030222;28;20702;-78
2021/12/07 03:58:40;;;;;;;21.50;16.47;;;3.80;99.90;;;;;;5033638;28;20203;-78
2021/12/07 04:01:11;;;;;;;24.07;17.07;;;3.90;99.90;;;;;;5011940;28;20195;-78
2021/12/07 04:03:42;;;;;;;25.03;16.60;;;3.80;99.90;;;;;;5017277;28;20200;-78
2021/12/07 04:06:10;;;;;;;23.07;16.87;;;3.80;99.90;;;;;;5014355;28;20219;-78
2021/12/07 04:08:41;;;;;;;24.80;16.47;;;3.90;99.90;;;;;;5030807;28;20218;-78
2021/12/07 04:11:11;;;;;;;22.80;17.57;;;4.00;99.90;;;;;;5014307;28;20219;-78
2021/12/07 04:13:40;;;;;;;25.20;18.03;;;3.90;99.90;;;;;;5022633;28;20215;-78
2021/12/07 04:16:11;;;;;;;25.73;18.00;;;3.80;99.90;;;;;;5012950;28;20229;-78
2021/12/07 04:18:45;;;;;;;22.87;17.23;;;3.80;99.90;;;;;;5022832;28;20199;-79
2021/12/07 04:21:13;;;;;;;25.37;18.03;;;3.80;99.90;;;;;;5029237;28;20204;-77
2021/12/07 04:23:41;;;;;;;26.20;18.57;;;3.80;99.90;;;;;;5010781;28;20211;-78
2021/12/07 04:26:11;;;;;;;28.33;18.77;;;3.70;99.90;;;;;;5013766;28;20219;-78
2021/12/07 04:28:39;;;;;;;24.77;16.20;;;3.80;99.90;;;;;;5006718;28;20208;-78
2021/12/07 04:31:09;;;;;;;23.63;16.73;;;3.90;99.90;;;;;;5013435;28;20230;-78
2021/12/07 04:33:39;;;;;;;22.60;16.10;;;4.10;99.90;;;;;;5012441;28;20204;-78
2021/12/07 04:36:08;;;;;;;24.87;16.13;;;4.20;99.90;;;;;;5010245;28;20229;-78
2021/12/07 04:38:36;;;;;;;22.17;15.67;;;4.20;99.90;;;;;;5016382;28;20199;-78
2021/12/07 04:41:06;;;;;;;22.43;14.53;;;4.20;99.90;;;;;;5012872;28;20195;-78
2021/12/07 04:43:37;;;;;;;20.43;15.07;;;4.30;99.90;;;;;;5029910;28;20203;-79
2021/12/07 04:46:11;;;;;;;25.17;15.67;;;4.20;99.90;;;;;;5004970;28;20227;-78
2021/12/07 04:59:52;;;;;;;28.17;17.20;;;4.00;99.90;;;;;;5013070;28;20191;-78
2021/12/07 05:02:20;;;;;;;30.07;18.70;;;3.90;99.90;;;;;;5006487;28;20197;-78
2021/12/07 05:04:49;;;;;;;26.87;18.37;;;3.90;99.90;;;;;;5008832;28;20215;-78
2021/12/07 05:07:23;;;;;;;28.10;18.73;;;4.00;99.90;;;;;;5022122;28;20716;-77
2021/12/07 05:13:09;;;;;;;32.87;19.23;;;4.10;99.90;;;;;;5007571;28;20223;-78
2021/12/07 05:18:38;;;;;;;34.00;20.47;;;4.10;99.90;;;;;;5009353;28;20559;-78
2021/12/07 05:24:07;;;;;;;29.87;18.57;;;4.20;99.90;;;;;;4972046;28;20208;-78
2021/12/07 05:37:45;;;;;;;29.43;17.07;;;4.20;99.90;;;;;;4993969;28;20215;-78
2021/12/07 05:40:15;;;;;;;24.00;15.90;;;4.20;99.90;;;;;;5011755;28;20193;-78
2021/12/07 05:42:43;;;;;;;28.33;15.87;;;4.20;99.90;;;;;;5025450;28;20203;-78
2021/12/07 05:45:14;;;;;;;27.47;15.73;;;4.30;99.90;;;;;;5014088;28;20199;-78
2021/12/07 05:47:42;;;;;;;27.10;15.07;;;4.30;99.90;;;;;;5011120;28;20674;-78
2021/12/07 05:50:11;;;;;;;28.43;15.23;;;4.20;99.90;;;;;;5012352;28;20200;-78
2021/12/07 05:52:40;;;;;;;25.13;15.43;;;4.20;99.90;;;;;;5018592;28;20215;-78
2021/12/07 05:55:09;;;;;;;25.97;14.57;;;4.20;99.90;;;;;;5032073;28;20203;-78
2021/12/07 05:57:38;;;;;;;25.83;14.10;;;4.20;99.90;;;;;;5015428;28;20204;-78
2021/12/07 06:00:27;;;;;;;23.33;15.00;;;4.30;99.90;;;;;;5015983;28;20213;-78
2021/12/07 06:02:56;;;;;;;24.93;13.20;;;4.30;99.90;;;;;;5012676;28;20561;-78
2021/12/07 06:05:24;;;;;;;24.77;13.47;;;4.20;99.90;;;;;;5026177;28;20226;-78
2021/12/07 06:07:53;;;;;;;29.13;13.83;;;4.20;99.90;;;;;;5030270;28;20214;-78
2021/12/07 06:10:21;;;;;;;19.37;12.30;;;4.30;99.90;;;;;;5009828;28;20187;-76
2021/12/07 06:12:49;;;;;;;25.10;11.80;;;4.30;99.90;;;;;;5007817;28;20235;-77
2021/12/07 06:15:19;;;;;;;20.90;12.90;;;4.40;99.90;;;;;;5032029;28;20680;-77
2021/12/07 06:17:47;;;;;;;20.27;11.10;;;4.30;99.90;;;;;;5015281;28;20199;-77
2021/12/07 06:20:15;;;;;;;39.77;12.37;;;4.30;99.90;;;;;;5009821;28;20215;-76
2021/12/07 06:22:43;;;;;;;21.07;10.87;;;4.40;99.90;;;;;;5033707;28;20191;-77
2021/12/07 06:25:12;;;;;;;17.73;9.83;;;4.40;99.90;;;;;;5010554;28;20196;-77
2021/12/07 06:27:41;;;;;;;21.73;10.70;;;4.30;99.90;;;;;;5013057;28;20209;-77
2021/12/07 06:30:11;;;;;;;26.87;10.90;;;4.40;99.90;;;;;;5005105;28;20222;-77
2021/12/07 06:32:38;;;;;;;20.30;10.77;;;4.30;99.90;;;;;;5017790;28;20220;-76
2021/12/07 06:35:08;;;;;;;26.13;12.90;;;4.40;99.90;;;;;;5004226;28;20673;-75
2021/12/07 06:37:38;;;;;;;24.73;12.27;;;4.40;99.90;;;;;;5023160;28;20204;-76
2021/12/07 06:40:08;;;;;;;28.80;12.93;;;4.50;99.90;;;;;;5011592;28;20211;-77
2021/12/07 06:42:38;;;;;;;22.53;12.03;;;4.50;99.90;;;;;;5026403;28;20212;-76
2021/12/07 06:45:07;;;;;;;24.97;12.10;;;4.40;99.90;;;;;;5007554;28;20207;-77
2021/12/07 06:47:34;;;;;;;19.87;11.27;;;4.40;99.90;;;;;;5004717;28;20216;-77
2021/12/07 06:50:15;;;;;;;18.23;10.60;;;4.40;99.90;;;;;;5011036;28;20539;-77
2021/12/07 06:53:14;;;;;;;24.57;11.17;;;4.40;99.90;;;;;;5001922;28;20216;-77
2021/12/07 06:55:42;;;;;;;26.97;10.97;;;4.40;99.90;;;;;;5027912;28;20223;-77
2021/12/07 06:58:11;;;;;;;20.17;11.17;;;4.40;99.90;;;;;;5013109;28;20207;-76
2021/12/07 07:00:39;;;;;;;21.73;11.47;;;4.50;99.90;;;;;;5009462;28;20208;-76
2021/12/07 07:03:07;;;;;;;20.67;11.00;;;4.50;99.90;;;;;;5013042;28;20215;-78
2021/12/07 07:05:35;;;;;;;18.80;11.13;;;4.40;99.90;;;;;;5029502;28;20231;-77
2021/12/07 07:08:03;;;;;;;22.07;10.30;;;4.50;99.90;;;;;;5017725;28;20280;-77
2021/12/07 07:10:31;;;;;;;20.83;11.00;;;4.40;99.90;;;;;;5007302;28;20192;-78
2021/12/07 07:12:58;;;;;;;19.77;9.97;;;4.40;99.90;;;;;;5031165;28;20218;-76
2021/12/07 07:15:27;;;;;;;22.67;10.93;;;4.50;99.90;;;;;;5016262;28;20948;-77
2021/12/07 07:17:55;;;;;;;22.00;9.60;;;4.40;99.90;;;;;;5018495;28;20202;-74
2021/12/07 07:20:25;;;;;;;18.77;9.30;;;4.40;99.90;;;;;;5034831;28;20206;-76
2021/12/07 07:22:52;;;;;;;17.60;8.83;;;4.50;99.90;;;;;;5015584;28;20246;-78
2021/12/07 07:25:21;;;;;;;23.97;10.90;;;4.50;99.90;;;;;;5028181;28;20209;-77
2021/12/07 07:27:49;;;;;;;17.10;9.93;;;4.40;99.90;;;;;;5014908;28;20210;-77
2021/12/07 07:30:19;;;;;;;17.13;8.80;;;4.40;99.90;;;;;;5007739;28;20210;-77
2021/12/07 07:32:48;;;;;;;19.10;8.90;;;4.40;99.90;;;;;;5012622;28;20216;-74
2021/12/07 07:35:17;;;;;;;16.83;9.17;;;4.40;99.90;;;;;;5023510;28;20270;-76
2021/12/07 07:37:45;;;;;;;19.03;8.80;;;4.40;99.90;;;;;;5005526;28;20204;-78
2021/12/07 07:40:15;;;;;;;18.03;9.33;;;4.40;99.90;;;;;;5006662;28;20203;-76
2021/12/07 07:42:43;;;;;;;17.60;8.77;;;4.40;99.90;;;;;;5005909;28;20207;-78
2021/12/07 07:45:23;;;;;;;18.90;8.73;;;4.40;99.90;;;;;;5028783;28;20223;-77
2021/12/07 07:47:52;;;;;;;19.07;8.93;;;4.30;99.90;;;;;;5028746;28;20198;-77
2021/12/07 07:50:20;;;;;;;18.73;8.87;;;4.40;99.90;;;;;;5009766;28;20215;-76
2021/12/07 07:52:47;;;;;;;22.20;8.50;;;4.40;99.90;;;;;;5008688;28;20228;-78
2021/12/07 07:55:16;;;;;;;16.23;9.00;;;4.30;99.90;;;;;;5001075;28;20206;-78
2021/12/07 07:57:44;;;;;;;22.60;10.23;;;4.30;99.90;;;;;;5006709;28;20225;-76
2021/12/07 08:00:16;;;;;;;19.77;10.00;;;4.30;99.90;;;;;;5021316;28;20556;-75
2021/12/07 08:02:44;;;;;;;23.93;11.27;;;4.30;99.90;;;;;;5006776;28;20195;-77
2021/12/07 08:05:13;;;;;;;20.77;11.17;;;4.30;99.90;;;;;;5009296;28;20205;-78
2021/12/07 08:07:46;;;;;;;26.87;11.93;;;4.40;99.90;;;;;;5010524;28;20198;-78
2021/12/07 08:10:20;;;;;;;24.30;13.00;;;4.40;99.90;;;;;;5025957;28;20206;-77
2021/12/07 08:12:48;;;;;;;25.20;13.80;;;4.40;99.90;;;;;;5030304;28;20216;-77
2021/12/07 08:15:18;;;;;;;22.23;13.93;;;4.50;99.90;;;;;;5026593;28;20210;-77
2021/12/07 08:17:47;;;;;;;24.07;14.40;;;4.40;99.90;;;;;;5026845;28;20203;-77
2021/12/07 08:20:16;;;;;;;26.67;14.27;;;4.40;99.90;;;;;;5006057;28;20203;-77
2021/12/07 08:22:44;;;;;;;27.67;16.57;;;4.40;99.90;;;;;;4999815;28;20200;-77
2021/12/07 08:25:11;;;;;;;27.47;16.23;;;4.40;99.90;;;;;;5014029;28;20211;-77
2021/12/07 08:27:39;;;;;;;30.70;16.30;;;4.30;99.90;;;;;;5025231;28;20230;-77
2021/12/07 08:30:09;;;;;;;32.47;17.67;;;4.30;99.90;;;;;;5006837;28;20203;-77
2021/12/07 08:32:39;;;;;;;36.60;19.40;;;4.30;99.90;;;;;;5023785;28;20211;-77
2021/12/07 08:35:09;;;;;;;32.63;19.00;;;4.30;99.90;;;;;;5011230;28;20215;-78
2021/12/07 08:37:38;;;;;;;33.03;19.37;;;4.30;99.90;;;;;;5010897;28;20218;-78
2021/12/07 08:40:09;;;;;;;30.30;19.10;;;4.30;99.90;;;;;;5012961;28;20195;-77
2021/12/07 08:42:38;;;;;;;34.67;21.13;;;4.30;99.90;;;;;;5024327;28;20206;-77
2021/12/07 08:45:06;;;;;;;30.40;19.43;;;4.30;99.90;;;;;;5008680;28;20211;-77
2021/12/07 08:47:34;;;;;;;34.07;20.53;;;4.30;99.90;;;;;;5004303;28;20204;-78
2021/12/07 08:50:04;;;;;;;39.97;21.23;;;4.30;99.90;;;;;;5005493;28;20201;-78
2021/12/07 08:52:31;;;;;;;37.47;20.77;;;4.30;99.90;;;;;;5014180;28;20622;-78
2021/12/07 09:00:33;;;;;;;37.30;20.03;;;4.40;99.90;;;;;;5010009;28;20187;-78
2021/12/07 09:03:01;;;;;;;36.10;20.87;;;4.30;99.90;;;;;;5017425;28;20683;-78
2021/12/07 09:05:28;;;;;;;32.03;20.47;;;4.50;99.90;;;;;;5018108;28;20283;-78
2021/12/07 09:07:56;;;;;;;30.80;19.70;;;4.40;99.90;;;;;;5052177;28;20202;-77
2021/12/07 09:10:24;;;;;;;33.40;19.17;;;4.40;99.90;;;;;;5034399;28;20553;-78
2021/12/07 09:12:52;;;;;;;36.70;19.27;;;4.50;99.90;;;;;;5019428;28;20215;-78
2021/12/07 09:15:21;;;;;;;35.73;19.67;;;4.50;99.90;;;;;;5015174;28;20199;-78
2021/12/07 09:17:48;;;;;;;26.60;17.57;;;4.50;99.90;;;;;;5031238;28;20208;-77
2021/12/07 09:20:16;;;;;;;33.03;18.33;;;4.40;99.90;;;;;;5014260;28;20686;-78
2021/12/07 09:22:45;;;;;;;33.33;19.33;;;4.50;99.90;;;;;;5017501;28;20214;-78
2021/12/07 09:25:13;;;;;;;32.70;18.70;;;4.50;99.90;;;;;;5017849;28;20214;-78
2021/12/07 09:27:42;;;;;;;31.90;18.37;;;4.50;99.90;;;;;;5024757;28;20199;-77
2021/12/07 09:30:12;;;;;;;30.13;17.80;;;4.50;99.90;;;;;;5024362;28;20516;-78
2021/12/07 09:32:40;;;;;;;33.60;16.50;;;4.50;99.90;;;;;;5015155;28;20572;-78
2021/12/07 09:35:09;;;;;;;32.60;16.77;;;4.50;99.90;;;;;;5016537;28;20369;-78
2021/12/07 09:37:37;;;;;;;29.70;17.20;;;4.60;99.90;;;;;;5025182;28;20235;-78
2021/12/07 09:40:08;;;;;;;28.83;16.20;;;4.60;99.90;;;;;;5013494;28;20583;-78
2021/12/07 09:42:36;;;;;;;25.77;15.73;;;4.60;99.90;;;;;;5014705;28;20581;-77
2021/12/07 09:45:06;;;;;;;25.73;15.43;;;4.50;99.90;;;;;;5033365;28;20197;-76
2021/12/07 09:47:34;;;;;;;31.47;14.60;;;4.60;99.90;;;;;;5006485;28;20206;-77
2021/12/07 09:50:01;;;;;;;27.60;15.23;;;4.50;99.90;;;;;;5010057;28;20204;-77
2021/12/07 09:52:29;;;;;;;23.87;14.53;;;4.60;99.90;;;;;;5011355;28;20214;-77
2021/12/07 09:54:56;;;;;;;27.53;14.77;;;4.60;99.90;;;;;;5010608;28;20233;-78
2021/12/07 09:57:25;;;;;;;27.77;12.63;;;4.70;99.90;;;;;;5032216;28;20229;-78
2021/12/07 09:59:52;;;;;;;25.30;13.00;;;4.60;99.90;;;;;;5010461;28;20206;-78
2021/12/07 10:02:21;;;;;;;21.67;12.93;;;4.60;99.90;;;;;;5026139;28;20208;-78
2021/12/07 10:04:49;;;;;;;20.07;12.13;;;4.60;99.90;;;;;;5033492;28;20206;-78
2021/12/07 10:07:17;;;;;;;22.57;12.00;;;4.70;99.90;;;;;;5031701;28;20231;-78
2021/12/07 10:09:47;;;;;;;17.63;12.07;;;4.80;99.90;;;;;;5028076;28;20223;-75
2021/12/07 10:12:18;;;;;;;18.23;11.70;;;4.80;99.90;;;;;;5009209;28;20650;-78
2021/12/07 10:14:46;;;;;;;21.83;11.23;;;4.80;99.90;;;;;;5017471;28;20273;-77
2021/12/07 10:17:13;;;;;;;20.20;10.57;;;4.70;99.90;;;;;;5014663;28;20246;-77
2021/12/07 10:19:49;;;;;;;19.13;10.93;;;4.80;99.90;;;;;;5013543;28;20678;-77
2021/12/07 10:22:21;;;;;;;19.77;8.43;;;4.80;99.90;;;;;;5012148;28;20192;-78
2021/12/07 10:24:53;;;;;;;11.97;8.07;;;4.80;99.90;;;;;;5011107;28;20205;-78
2021/12/07 10:27:33;;;;;;;15.13;7.63;;;4.80;99.90;;;;;;5032984;28;20250;-78
2021/12/07 10:30:02;;;;;;;17.60;8.87;;;4.80;99.90;;;;;;5006617;28;20181;-78
2021/12/07 10:32:29;;;;;;;17.07;8.20;;;4.80;99.90;;;;;;5029954;28;20215;-78
2021/12/07 10:34:58;;;;;;;20.20;8.50;;;4.80;99.90;;;;;;5011830;28;20216;-78
2021/12/07 10:37:31;;;;;;;15.30;8.43;;;4.80;99.90;;;;;;5024324;28;20223;-78
2021/12/07 10:39:59;;;;;;;16.43;7.93;;;4.90;99.90;;;;;;5026060;28;20218;-78
2021/12/07 10:42:29;;;;;;;19.07;8.40;;;4.90;99.90;;;;;;5001706;28;20203;-78
2021/12/07 10:44:59;;;;;;;15.97;9.33;;;5.00;99.90;;;;;;5023455;28;20199;-78
2021/12/07 10:47:27;;;;;;;17.87;10.07;;;5.00;99.90;;;;;;5003725;28;20225;-78
2021/12/07 10:49:58;;;;;;;13.63;9.17;;;5.10;99.90;;;;;;5013390;28;20204;-78
2021/12/07 10:52:29;;;;;;;16.90;9.73;;;5.10;99.90;;;;;;5023780;28;20192;-78
2021/12/07 10:55:02;;;;;;;15.73;8.20;;;5.20;99.90;;;;;;5009918;28;20230;-75
2021/12/07 10:57:32;;;;;;;16.80;9.50;;;5.20;99.90;;;;;;5011811;28;20222;-78
2021/12/07 11:03:12;;;;;;;17.60;8.83;;;5.50;99.90;;;;;;4982608;28;20197;-78
2021/12/07 11:05:44;;;;;;;14.00;8.23;;;5.60;99.90;;;;;;5008074;28;20234;-78
2021/12/07 11:08:12;;;;;;;15.07;7.10;;;5.80;99.90;;;;;;5022386;28;20666;-77
2021/12/07 11:10:43;;;;;;;14.63;8.53;;;5.80;99.90;;;;;;5024437;28;20213;-75
2021/12/07 11:13:15;;;;;;;12.10;6.60;;;6.20;99.90;;;;;;5011464;28;20197;-75
2021/12/07 11:15:50;;;;;;;12.57;7.70;;;6.10;99.90;;;;;;5021549;28;20229;-77
2021/12/07 11:18:21;;;;;;;10.37;6.13;;;6.60;99.90;;;;;;5025886;28;20219;-78
2021/12/07 11:21:02;;;;;;;14.37;7.47;;;6.70;99.90;;;;;;5010017;28;20203;-78
2021/12/07 11:23:33;;;;;;;15.87;7.17;;;7.00;99.90;;;;;;5025081;28;20207;-78
2021/12/07 11:31:40;;;;;;;10.63;6.33;;;7.40;99.90;;;;;;5005577;28;20536;-78
2021/12/07 11:34:12;;;;;;;11.70;5.80;;;7.60;99.90;;;;;;5013178;28;20219;-77
2021/12/07 11:36:43;;;;;;;10.03;6.20;;;7.60;99.90;;;;;;5021216;28;20227;-79
2021/12/07 11:39:23;;;;;;;15.23;5.63;;;7.30;99.90;;;;;;5033846;28;20196;-76
2021/12/07 11:41:57;;;;;;;15.10;6.33;;;7.10;99.90;;;;;;5030465;28;20211;-77
2021/12/07 11:44:25;;;;;;;9.70;5.23;;;7.50;99.90;;;;;;5030560;28;20211;-78
2021/12/07 11:46:53;;;;;;;10.60;5.50;;;7.40;99.90;;;;;;5000803;28;20231;-75
2021/12/07 11:49:23;;;;;;;10.80;5.93;;;7.30;99.90;;;;;;5008602;28;20204;-76
2021/12/07 11:51:54;;;;;;;12.13;5.97;;;8.50;99.90;;;;;;5024876;28;20214;-77
2021/12/07 11:54:25;;;;;;;12.40;5.67;;;8.70;99.90;;;;;;5004005;28;20554;-77
2021/12/07 11:56:52;;;;;;;9.67;4.93;;;8.30;99.90;;;;;;5024350;28;20227;-78
2021/12/07 11:59:21;;;;;;;11.97;4.70;;;8.40;99.90;;;;;;5015285;28;20215;-77
2021/12/07 12:01:52;;;;;;;14.57;5.93;;;8.40;99.90;;;;;;5006457;28;20203;-77
2021/12/07 12:04:20;;;;;;;12.20;6.03;;;8.60;99.90;;;;;;5010662;28;20207;-77
2021/12/07 12:06:49;;;;;;;10.90;6.17;;;9.10;99.90;;;;;;5025191;28;20220;-76
2021/12/07 12:09:19;;;;;;;11.40;5.20;;;8.30;99.90;;;;;;5017750;28;20207;-77
2021/12/07 12:11:58;;;;;;;13.20;5.87;;;8.40;99.90;;;;;;5019895;28;20211;-77
2021/12/07 12:14:39;;;;;;;9.97;5.20;;;7.80;99.90;;;;;;5034394;28;20223;-77
2021/12/07 12:17:10;;;;;;;8.67;4.57;;;7.00;99.90;;;;;;5031212;28;20231;-77
2021/12/07 12:20:01;;;;;;;16.03;6.10;;;6.90;99.90;;;;;;5014678;28;20204;-77
2021/12/07 12:22:35;;;;;;;12.93;5.37;;;7.00;99.90;;;;;;5024463;28;20214;-77
2021/12/07 12:25:07;;;;;;;13.97;6.03;;;6.70;99.90;;;;;;5011378;28;20196;-78
2021/12/07 12:27:35;;;;;;;12.23;5.73;;;6.60;99.90;;;;;;5015246;28;20195;-77
2021/12/07 12:30:17;;;;;;;13.47;5.17;;;6.70;99.90;;;;;;5024388;28;20206;-77
2021/12/07 12:32:46;;;;;;;12.90;5.60;;;6.60;99.90;;;;;;5027671;28;20211;-78
2021/12/07 12:35:29;;;;;;;8.03;4.93;;;6.60;99.90;;;;;;5013380;28;20621;-77
2021/12/07 12:37:56;;;;;;;13.23;5.77;;;6.80;99.90;;;;;;5019294;28;20211;-77
2021/12/07 12:40:29;;;;;;;11.50;4.57;;;7.00;99.90;;;;;;5012692;28;20209;-77
2021/12/07 12:42:58;;;;;;;14.90;5.60;;;7.10;99.90;;;;;;5012183;28;20203;-77
2021/12/07 12:45:31;;;;;;;14.27;6.07;;;7.00;99.90;;;;;;5007096;28;20697;-77
2021/12/07 12:48:01;;;;;;;13.37;5.30;;;6.80;99.90;;;;;;5013213;28;20213;-77
2021/12/07 12:50:32;;;;;;;10.30;5.57;;;6.70;99.90;;;;;;5012065;28;20202;-75
2021/12/07 12:53:02;;;;;;;10.70;5.53;;;6.70;99.90;;;;;;5007426;28;20250;-75
2021/12/07 12:55:37;;;;;;;10.00;4.60;;;6.80;99.90;;;;;;5010034;28;20242;-77
2021/12/07 12:58:07;;;;;;;11.13;5.43;;;7.30;99.90;;;;;;5030516;28;20204;-77
2021/12/07 13:01:04;;;;;;;8.70;4.83;;;7.80;99.90;;;;;;5020268;28;20212;-77
2021/12/07 13:03:51;;;;;;;11.13;4.47;;;7.70;99.90;;;;;;4997525;28;20191;-76
2021/12/07 13:06:42;;;;;;;14.40;5.07;;;7.50;99.90;;;;;;5012705;28;20218;-77
2021/12/07 13:09:22;;;;;;;10.33;5.40;;;7.20;99.90;;;;;;5017950;28;20206;-77
2021/12/07 13:11:58;;;;;;;11.43;5.23;;;7.70;99.90;;;;;;5024165;28;20199;-78
2021/12/07 13:14:39;;;;;;;12.00;5.43;;;8.00;99.90;;;;;;5012614;28;20195;-78
2021/12/07 13:17:15;;;;;;;11.00;5.33;;;8.00;99.90;;;;;;5009173;28;20689;-78
2021/12/07 13:20:15;;;;;;;9.17;5.10;;;9.20;99.90;;;;;;5005787;28;20754;-76
2021/12/07 13:22:45;;;;;;;11.10;5.60;;;9.00;99.90;;;;;;4994645;28;20214;-78
2021/12/07 13:25:15;;;;;;;13.33;6.70;;;8.20;99.90;;;;;;5018801;28;20195;-77
2021/12/07 13:28:11;;;;;;;15.23;6.20;;;7.70;99.90;;;;;;5016745;28;20200;-78
2021/12/07 13:30:49;;;;;;;9.87;6.77;;;7.40;99.90;;;;;;5006979;28;20204;-78
2021/12/07 13:33:19;;;;;;;9.33;6.40;;;7.70;99.90;;;;;;5018111;28;20195;-78
2021/12/07 13:35:47;;;;;;;14.30;6.33;;;7.80;99.90;;;;;;5026179;28;20220;-78
2021/12/07 13:38:17;;;;;;;10.07;5.47;;;7.80;99.90;;;;;;5013417;28;20665;-78
2021/12/07 13:40:45;;;;;;;7.00;4.80;;;7.50;99.90;;;;;;5013229;28;20211;-78
2021/12/07 13:43:30;;;;;;;10.47;5.47;;;7.40;99.90;;;;;;5031699;28;20230;-78
2021/12/07 13:46:13;;;;;;;8.87;4.67;;;7.50;99.90;;;;;;5015725;28;20219;-78
2021/12/07 13:48:41;;;;;;;9.43;4.50;;;7.30;99.90;;;;;;5014620;28;20220;-78
2021/12/07 13:51:10;;;;;;;9.83;4.03;;;7.10;99.90;;;;;;5032047;28;20212;-78
2021/12/07 13:53:39;;;;;;;8.40;4.23;;;7.10;99.90;;;;;;5031221;28;20596;-78
2021/12/07 13:56:07;;;;;;;8.70;3.80;;;7.00;99.90;;;;;;5014002;28;20741;-78
2021/12/07 13:58:52;;;;;;;11.37;5.10;;;7.00;99.90;;;;;;5022750;28;20203;-78
2021/12/07 14:01:21;;;;;;;10.47;4.43;;;7.10;99.90;;;;;;5024058;28;20217;-78
2021/12/07 14:03:48;;;;;;;10.90;4.10;;;7.30;99.90;;;;;;5013898;28;20214;-78
2021/12/07 14:06:16;;;;;;;9.20;4.70;;;7.20;99.90;;;;;;5009123;28;20234;-78
2021/12/07 14:08:44;;;;;;;8.40;3.90;;;7.00;99.90;;;;;;5031789;28;20207;-78
2021/12/07 14:11:14;;;;;;;12.10;4.53;;;6.90;99.90;;;;;;5032407;28;20199;-78
2021/12/07 14:13:42;;;;;;;9.70;3.63;;;6.80;99.90;;;;;;5016003;28;20191;-78
2021/12/07 14:16:13;;;;;;;9.07;4.07;;;6.70;99.90;;;;;;5011539;28;20222;-78
2021/12/07 14:18:44;;;;;;;12.33;4.47;;;6.70;99.90;;;;;;5034963;28;20210;-78
2021/12/07 14:21:12;;;;;;;9.23;4.17;;;6.50;99.90;;;;;;5018865;28;20205;-78
2021/12/07 14:23:41;;;;;;;11.70;3.70;;;6.40;99.90;;;;;;5019245;28;20210;-78
2021/12/07 14:26:11;;;;;;;8.77;3.53;;;6.30;99.90;;;;;;5021003;28;20208;-78
2021/12/07 14:28:39;;;;;;;6.57;2.90;;;6.30;99.90;;;;;;5036781;28;20655;-78
2021/12/07 14:31:13;;;;;;;8.53;3.10;;;6.20;99.90;;;;;;5032882;28;20196;-78
2021/12/07 14:33:43;;;;;;;7.07;2.70;;;6.20;99.90;;;;;;5033250;28;20207;-78